sensor_id;sensor_type;location;lat;lon;timestamp;P1;durP1;ratioP1;P2;durP2;ratioP2
65315;SDS011;51920;53.952;10.292;2022-12-18T00:02:04;25.27;;;11.57;;
65315;SDS011;51920;53.952;10.292;2022-12-18T00:04:30;23.90;;;11.10;;
65315;SDS011;51920;53.952;10.292;2022-12-18T00:06:55;27.47;;;11.50;;
65315;SDS011;51920;53.952;10.292;2022-12-18T00:09:20;22.87;;;11.23;;
65315;SDS011;51920;53.952;10.292;2022-12-18T00:11:46;23.08;;;11.13;;
65315;SDS011;51920;53.952;10.292;2022-12-18T00:14:12;23.30;;;11.57;;
65315;SDS011;51920;53.952;10.292;2022-12-18T00:16:38;22.92;;;11.35;;
65315;SDS011;51920;53.952;10.292;2022-12-18T00:19:04;23.63;;;10.67;;
65315;SDS011;51920;53.952;10.292;2022-12-18T00:21:31;23.85;;;11.27;;
65315;SDS011;51920;53.952;10.292;2022-12-18T00:23:57;24.15;;;10.85;;
65315;SDS011;51920;53.952;10.292;2022-12-18T00:26:25;26.73;;;11.40;;
65315;SDS011;51920;53.952;10.292;2022-12-18T00:28:59;21.80;;;10.20;;
65315;SDS011;51920;53.952;10.292;2022-12-18T00:31:30;22.77;;;10.30;;
65315;SDS011;51920;53.952;10.292;2022-12-18T00:33:56;22.85;;;11.45;;
65315;SDS011;51920;53.952;10.292;2022-12-18T00:36:24;20.85;;;10.77;;
65315;SDS011;51920;53.952;10.292;2022-12-18T00:38:53;23.10;;;10.00;;
65315;SDS011;51920;53.952;10.292;2022-12-18T00:41:20;24.35;;;10.75;;
65315;SDS011;51920;53.952;10.292;2022-12-18T00:44:05;23.70;;;10.63;;
65315;SDS011;51920;53.952;10.292;2022-12-18T00:46:32;20.75;;;10.32;;
65315;SDS011;51920;53.952;10.292;2022-12-18T00:48:58;22.25;;;10.75;;
65315;SDS011;51920;53.952;10.292;2022-12-18T00:51:25;20.87;;;10.00;;
65315;SDS011;51920;53.952;10.292;2022-12-18T00:53:51;23.98;;;10.43;;
65315;SDS011;51920;53.952;10.292;2022-12-18T00:56:17;23.43;;;10.37;;
65315;SDS011;51920;53.952;10.292;2022-12-18T00:58:42;24.07;;;10.73;;
65315;SDS011;51920;53.952;10.292;2022-12-18T01:01:08;23.25;;;10.75;;
65315;SDS011;51920;53.952;10.292;2022-12-18T01:03:34;23.10;;;10.67;;
65315;SDS011;51920;53.952;10.292;2022-12-18T01:06:04;23.52;;;10.20;;
65315;SDS011;51920;53.952;10.292;2022-12-18T01:08:34;23.20;;;10.07;;
65315;SDS011;51920;53.952;10.292;2022-12-18T01:11:00;21.48;;;10.48;;
65315;SDS011;51920;53.952;10.292;2022-12-18T01:13:26;25.52;;;11.43;;
65315;SDS011;51920;53.952;10.292;2022-12-18T01:15:52;19.38;;;9.73;;
65315;SDS011;51920;53.952;10.292;2022-12-18T01:18:17;21.87;;;10.10;;
65315;SDS011;51920;53.952;10.292;2022-12-18T01:20:43;17.87;;;9.83;;
65315;SDS011;51920;53.952;10.292;2022-12-18T01:23:08;22.80;;;9.93;;
65315;SDS011;51920;53.952;10.292;2022-12-18T01:25:35;25.02;;;10.07;;
65315;SDS011;51920;53.952;10.292;2022-12-18T01:28:01;21.58;;;9.48;;
65315;SDS011;51920;53.952;10.292;2022-12-18T01:30:27;26.23;;;10.40;;
65315;SDS011;51920;53.952;10.292;2022-12-18T01:32:53;23.50;;;10.25;;
65315;SDS011;51920;53.952;10.292;2022-12-18T01:35:18;21.57;;;9.43;;
65315;SDS011;51920;53.952;10.292;2022-12-18T01:37:45;23.80;;;10.43;;
65315;SDS011;51920;53.952;10.292;2022-12-18T01:40:10;21.47;;;9.73;;
65315;SDS011;51920;53.952;10.292;2022-12-18T01:42:37;20.63;;;9.65;;
65315;SDS011;51920;53.952;10.292;2022-12-18T01:47:44;22.85;;;10.40;;
65315;SDS011;51920;53.952;10.292;2022-12-18T01:52:50;21.30;;;10.07;;
65315;SDS011;51920;53.952;10.292;2022-12-18T01:55:19;22.45;;;9.75;;
65315;SDS011;51920;53.952;10.292;2022-12-18T01:57:47;23.33;;;10.02;;
65315;SDS011;51920;53.952;10.292;2022-12-18T02:00:14;22.73;;;10.27;;
65315;SDS011;51920;53.952;10.292;2022-12-18T02:02:43;20.67;;;10.00;;
65315;SDS011;51920;53.952;10.292;2022-12-18T02:05:11;23.02;;;9.93;;
65315;SDS011;51920;53.952;10.292;2022-12-18T02:18:32;19.13;;;8.90;;
65315;SDS011;51920;53.952;10.292;2022-12-18T02:21:07;21.65;;;9.95;;
65315;SDS011;51920;53.952;10.292;2022-12-18T02:23:42;19.67;;;8.75;;
65315;SDS011;51920;53.952;10.292;2022-12-18T02:29:00;21.47;;;9.73;;
65315;SDS011;51920;53.952;10.292;2022-12-18T02:31:35;20.77;;;10.15;;
65315;SDS011;51920;53.952;10.292;2022-12-18T02:34:05;17.65;;;8.95;;
65315;SDS011;51920;53.952;10.292;2022-12-18T02:36:38;19.83;;;9.20;;
65315;SDS011;51920;53.952;10.292;2022-12-18T02:39:06;20.25;;;9.50;;
65315;SDS011;51920;53.952;10.292;2022-12-18T02:41:35;19.80;;;8.63;;
65315;SDS011;51920;53.952;10.292;2022-12-18T02:44:06;20.05;;;9.32;;
65315;SDS011;51920;53.952;10.292;2022-12-18T02:52:30;18.23;;;8.52;;
65315;SDS011;51920;53.952;10.292;2022-12-18T03:01:06;20.50;;;9.18;;
65315;SDS011;51920;53.952;10.292;2022-12-18T03:03:47;22.00;;;8.70;;
65315;SDS011;51920;53.952;10.292;2022-12-18T03:08:44;21.33;;;9.97;;
65315;SDS011;51920;53.952;10.292;2022-12-18T03:11:15;15.00;;;7.88;;
65315;SDS011;51920;53.952;10.292;2022-12-18T03:14:01;17.48;;;8.80;;
65315;SDS011;51920;53.952;10.292;2022-12-18T03:16:28;16.80;;;8.33;;
65315;SDS011;51920;53.952;10.292;2022-12-18T03:19:03;19.08;;;9.15;;
65315;SDS011;51920;53.952;10.292;2022-12-18T03:21:33;17.30;;;8.52;;
65315;SDS011;51920;53.952;10.292;2022-12-18T03:24:05;19.00;;;9.15;;
65315;SDS011;51920;53.952;10.292;2022-12-18T03:26:33;16.38;;;8.45;;
65315;SDS011;51920;53.952;10.292;2022-12-18T03:29:07;16.13;;;8.07;;
65315;SDS011;51920;53.952;10.292;2022-12-18T03:31:36;16.92;;;8.70;;
65315;SDS011;51920;53.952;10.292;2022-12-18T03:34:09;17.52;;;8.80;;
65315;SDS011;51920;53.952;10.292;2022-12-18T03:36:44;17.20;;;8.10;;
65315;SDS011;51920;53.952;10.292;2022-12-18T03:39:10;16.90;;;8.52;;
65315;SDS011;51920;53.952;10.292;2022-12-18T03:41:44;19.53;;;8.47;;
65315;SDS011;51920;53.952;10.292;2022-12-18T03:44:41;17.17;;;8.77;;
65315;SDS011;51920;53.952;10.292;2022-12-18T03:50:07;16.80;;;7.90;;
65315;SDS011;51920;53.952;10.292;2022-12-18T03:52:54;18.10;;;8.73;;
65315;SDS011;51920;53.952;10.292;2022-12-18T03:55:26;18.83;;;8.73;;
65315;SDS011;51920;53.952;10.292;2022-12-18T03:57:59;17.55;;;8.32;;
65315;SDS011;51920;53.952;10.292;2022-12-18T04:00:37;20.25;;;8.80;;
65315;SDS011;51920;53.952;10.292;2022-12-18T04:03:07;18.77;;;8.98;;
65315;SDS011;51920;53.952;10.292;2022-12-18T04:05:40;18.20;;;8.73;;
65315;SDS011;51920;53.952;10.292;2022-12-18T04:08:08;20.70;;;8.90;;
65315;SDS011;51920;53.952;10.292;2022-12-18T04:10:37;16.02;;;8.23;;
65315;SDS011;51920;53.952;10.292;2022-12-18T04:13:03;17.63;;;8.43;;
65315;SDS011;51920;53.952;10.292;2022-12-18T04:15:28;18.75;;;8.35;;
65315;SDS011;51920;53.952;10.292;2022-12-18T04:17:56;19.58;;;8.48;;
65315;SDS011;51920;53.952;10.292;2022-12-18T04:20:23;17.83;;;8.20;;
65315;SDS011;51920;53.952;10.292;2022-12-18T04:22:49;18.60;;;8.30;;
65315;SDS011;51920;53.952;10.292;2022-12-18T04:25:15;16.13;;;7.67;;
65315;SDS011;51920;53.952;10.292;2022-12-18T04:27:52;18.42;;;8.23;;
65315;SDS011;51920;53.952;10.292;2022-12-18T04:30:18;20.27;;;8.67;;
65315;SDS011;51920;53.952;10.292;2022-12-18T04:32:44;18.30;;;8.38;;
65315;SDS011;51920;53.952;10.292;2022-12-18T04:35:09;19.27;;;8.20;;
65315;SDS011;51920;53.952;10.292;2022-12-18T04:37:39;18.92;;;8.27;;
65315;SDS011;51920;53.952;10.292;2022-12-18T04:40:05;15.37;;;8.10;;
65315;SDS011;51920;53.952;10.292;2022-12-18T04:42:38;15.18;;;7.75;;
65315;SDS011;51920;53.952;10.292;2022-12-18T04:45:04;15.23;;;8.45;;
65315;SDS011;51920;53.952;10.292;2022-12-18T04:47:30;19.35;;;8.25;;
65315;SDS011;51920;53.952;10.292;2022-12-18T04:49:56;15.90;;;8.10;;
65315;SDS011;51920;53.952;10.292;2022-12-18T04:52:21;18.20;;;7.93;;
65315;SDS011;51920;53.952;10.292;2022-12-18T04:54:47;18.80;;;8.38;;
65315;SDS011;51920;53.952;10.292;2022-12-18T04:57:12;16.97;;;7.80;;
65315;SDS011;51920;53.952;10.292;2022-12-18T04:59:39;19.65;;;8.95;;
65315;SDS011;51920;53.952;10.292;2022-12-18T05:02:04;16.03;;;7.57;;
65315;SDS011;51920;53.952;10.292;2022-12-18T05:04:30;15.57;;;7.93;;
65315;SDS011;51920;53.952;10.292;2022-12-18T05:06:55;18.65;;;8.10;;
65315;SDS011;51920;53.952;10.292;2022-12-18T05:09:21;17.80;;;7.53;;
65315;SDS011;51920;53.952;10.292;2022-12-18T05:11:46;19.53;;;8.57;;
65315;SDS011;51920;53.952;10.292;2022-12-18T05:14:12;19.07;;;9.50;;
65315;SDS011;51920;53.952;10.292;2022-12-18T05:16:37;16.60;;;7.78;;
65315;SDS011;51920;53.952;10.292;2022-12-18T05:19:02;19.93;;;8.37;;
65315;SDS011;51920;53.952;10.292;2022-12-18T05:21:28;16.70;;;7.73;;
65315;SDS011;51920;53.952;10.292;2022-12-18T05:23:53;19.80;;;9.17;;
65315;SDS011;51920;53.952;10.292;2022-12-18T05:26:19;19.07;;;8.70;;
65315;SDS011;51920;53.952;10.292;2022-12-18T05:28:44;16.25;;;7.57;;
65315;SDS011;51920;53.952;10.292;2022-12-18T05:31:11;18.08;;;8.27;;
65315;SDS011;51920;53.952;10.292;2022-12-18T05:33:36;17.03;;;8.43;;
65315;SDS011;51920;53.952;10.292;2022-12-18T05:36:03;17.63;;;8.27;;
65315;SDS011;51920;53.952;10.292;2022-12-18T05:38:31;17.83;;;8.70;;
65315;SDS011;51920;53.952;10.292;2022-12-18T05:40:58;18.98;;;8.23;;
65315;SDS011;51920;53.952;10.292;2022-12-18T05:43:24;17.30;;;8.27;;
65315;SDS011;51920;53.952;10.292;2022-12-18T05:45:50;18.33;;;8.73;;
65315;SDS011;51920;53.952;10.292;2022-12-18T05:48:17;19.95;;;8.50;;
65315;SDS011;51920;53.952;10.292;2022-12-18T05:50:43;16.00;;;8.50;;
65315;SDS011;51920;53.952;10.292;2022-12-18T05:53:13;18.70;;;8.02;;
65315;SDS011;51920;53.952;10.292;2022-12-18T05:55:39;17.73;;;8.50;;
65315;SDS011;51920;53.952;10.292;2022-12-18T05:58:07;17.90;;;8.68;;
65315;SDS011;51920;53.952;10.292;2022-12-18T06:00:34;17.67;;;8.38;;
65315;SDS011;51920;53.952;10.292;2022-12-18T06:03:01;18.57;;;8.13;;
65315;SDS011;51920;53.952;10.292;2022-12-18T06:05:27;19.85;;;9.65;;
65315;SDS011;51920;53.952;10.292;2022-12-18T06:07:53;20.38;;;8.68;;
65315;SDS011;51920;53.952;10.292;2022-12-18T06:10:18;22.70;;;9.50;;
65315;SDS011;51920;53.952;10.292;2022-12-18T06:12:44;19.35;;;8.68;;
65315;SDS011;51920;53.952;10.292;2022-12-18T06:15:09;20.63;;;8.83;;
65315;SDS011;51920;53.952;10.292;2022-12-18T06:17:35;19.63;;;9.40;;
65315;SDS011;51920;53.952;10.292;2022-12-18T06:20:00;21.13;;;8.98;;
65315;SDS011;51920;53.952;10.292;2022-12-18T06:22:26;22.17;;;8.80;;
65315;SDS011;51920;53.952;10.292;2022-12-18T06:24:52;19.33;;;8.93;;
65315;SDS011;51920;53.952;10.292;2022-12-18T06:27:18;18.70;;;9.23;;
65315;SDS011;51920;53.952;10.292;2022-12-18T06:29:43;20.83;;;9.03;;
65315;SDS011;51920;53.952;10.292;2022-12-18T06:32:09;17.83;;;8.90;;
65315;SDS011;51920;53.952;10.292;2022-12-18T06:34:34;17.93;;;8.73;;
65315;SDS011;51920;53.952;10.292;2022-12-18T06:37:02;17.80;;;8.88;;
65315;SDS011;51920;53.952;10.292;2022-12-18T06:39:28;19.00;;;8.77;;
65315;SDS011;51920;53.952;10.292;2022-12-18T06:41:53;18.60;;;9.03;;
65315;SDS011;51920;53.952;10.292;2022-12-18T06:44:18;20.40;;;9.60;;
65315;SDS011;51920;53.952;10.292;2022-12-18T06:46:44;19.60;;;9.87;;
65315;SDS011;51920;53.952;10.292;2022-12-18T06:49:10;20.27;;;8.90;;
65315;SDS011;51920;53.952;10.292;2022-12-18T06:51:36;26.40;;;9.70;;
65315;SDS011;51920;53.952;10.292;2022-12-18T06:54:02;20.65;;;9.73;;
65315;SDS011;51920;53.952;10.292;2022-12-18T06:56:27;19.93;;;9.90;;
65315;SDS011;51920;53.952;10.292;2022-12-18T06:58:53;23.92;;;9.63;;
65315;SDS011;51920;53.952;10.292;2022-12-18T07:01:18;21.47;;;9.17;;
65315;SDS011;51920;53.952;10.292;2022-12-18T07:03:44;19.90;;;9.47;;
65315;SDS011;51920;53.952;10.292;2022-12-18T07:06:17;20.38;;;9.18;;
65315;SDS011;51920;53.952;10.292;2022-12-18T07:08:45;21.30;;;9.52;;
65315;SDS011;51920;53.952;10.292;2022-12-18T07:11:11;21.75;;;9.80;;
65315;SDS011;51920;53.952;10.292;2022-12-18T07:13:37;22.50;;;10.00;;
65315;SDS011;51920;53.952;10.292;2022-12-18T07:16:03;21.03;;;10.13;;
65315;SDS011;51920;53.952;10.292;2022-12-18T07:18:49;22.67;;;9.88;;
65315;SDS011;51920;53.952;10.292;2022-12-18T07:21:16;20.27;;;9.80;;
65315;SDS011;51920;53.952;10.292;2022-12-18T07:23:43;21.63;;;9.52;;
65315;SDS011;51920;53.952;10.292;2022-12-18T07:26:11;22.58;;;9.82;;
65315;SDS011;51920;53.952;10.292;2022-12-18T07:28:38;19.05;;;9.55;;
65315;SDS011;51920;53.952;10.292;2022-12-18T07:31:06;21.40;;;9.50;;
65315;SDS011;51920;53.952;10.292;2022-12-18T07:33:33;23.37;;;9.13;;
65315;SDS011;51920;53.952;10.292;2022-12-18T07:35:59;20.05;;;9.60;;
65315;SDS011;51920;53.952;10.292;2022-12-18T07:38:26;23.48;;;10.65;;
65315;SDS011;51920;53.952;10.292;2022-12-18T07:40:51;23.57;;;10.80;;
65315;SDS011;51920;53.952;10.292;2022-12-18T07:43:17;19.35;;;9.15;;
65315;SDS011;51920;53.952;10.292;2022-12-18T07:45:43;21.45;;;9.80;;
65315;SDS011;51920;53.952;10.292;2022-12-18T07:48:08;20.80;;;9.53;;
65315;SDS011;51920;53.952;10.292;2022-12-18T07:50:34;19.83;;;9.73;;
65315;SDS011;51920;53.952;10.292;2022-12-18T07:52:59;23.90;;;9.70;;
65315;SDS011;51920;53.952;10.292;2022-12-18T07:55:29;21.58;;;10.00;;
65315;SDS011;51920;53.952;10.292;2022-12-18T07:57:55;25.10;;;10.18;;
65315;SDS011;51920;53.952;10.292;2022-12-18T08:00:20;21.97;;;9.13;;
65315;SDS011;51920;53.952;10.292;2022-12-18T08:02:46;22.58;;;10.15;;
65315;SDS011;51920;53.952;10.292;2022-12-18T08:05:11;24.43;;;10.10;;
65315;SDS011;51920;53.952;10.292;2022-12-18T08:07:36;21.17;;;10.57;;
65315;SDS011;51920;53.952;10.292;2022-12-18T08:10:03;21.85;;;10.10;;
65315;SDS011;51920;53.952;10.292;2022-12-18T08:12:28;21.97;;;10.43;;
65315;SDS011;51920;53.952;10.292;2022-12-18T08:14:54;22.17;;;9.80;;
65315;SDS011;51920;53.952;10.292;2022-12-18T08:17:19;22.33;;;10.30;;
65315;SDS011;51920;53.952;10.292;2022-12-18T08:19:45;23.83;;;10.43;;
65315;SDS011;51920;53.952;10.292;2022-12-18T08:22:10;20.27;;;9.18;;
65315;SDS011;51920;53.952;10.292;2022-12-18T08:24:36;23.63;;;10.07;;
65315;SDS011;51920;53.952;10.292;2022-12-18T08:27:01;21.63;;;10.20;;
65315;SDS011;51920;53.952;10.292;2022-12-18T08:29:28;23.23;;;10.10;;
65315;SDS011;51920;53.952;10.292;2022-12-18T08:31:55;20.85;;;10.68;;
65315;SDS011;51920;53.952;10.292;2022-12-18T08:34:21;27.20;;;10.57;;
65315;SDS011;51920;53.952;10.292;2022-12-18T08:36:46;25.70;;;9.67;;
65315;SDS011;51920;53.952;10.292;2022-12-18T08:39:12;22.50;;;10.07;;
65315;SDS011;51920;53.952;10.292;2022-12-18T08:41:37;20.87;;;10.30;;
65315;SDS011;51920;53.952;10.292;2022-12-18T08:44:03;23.50;;;11.10;;
65315;SDS011;51920;53.952;10.292;2022-12-18T08:46:47;23.52;;;10.63;;
65315;SDS011;51920;53.952;10.292;2022-12-18T08:49:12;23.67;;;10.07;;
65315;SDS011;51920;53.952;10.292;2022-12-18T08:51:38;22.93;;;10.13;;
65315;SDS011;51920;53.952;10.292;2022-12-18T08:54:04;20.23;;;9.73;;
65315;SDS011;51920;53.952;10.292;2022-12-18T08:56:30;22.42;;;10.70;;
65315;SDS011;51920;53.952;10.292;2022-12-18T08:58:56;22.35;;;10.25;;
65315;SDS011;51920;53.952;10.292;2022-12-18T09:01:22;19.20;;;9.27;;
65315;SDS011;51920;53.952;10.292;2022-12-18T09:03:49;23.10;;;10.23;;
65315;SDS011;51920;53.952;10.292;2022-12-18T09:06:16;21.85;;;10.90;;
65315;SDS011;51920;53.952;10.292;2022-12-18T09:08:43;21.13;;;9.90;;
65315;SDS011;51920;53.952;10.292;2022-12-18T09:11:14;23.63;;;10.63;;
65315;SDS011;51920;53.952;10.292;2022-12-18T09:13:43;23.07;;;10.07;;
65315;SDS011;51920;53.952;10.292;2022-12-18T09:16:09;20.73;;;9.98;;
65315;SDS011;51920;53.952;10.292;2022-12-18T09:18:34;24.13;;;11.07;;
65315;SDS011;51920;53.952;10.292;2022-12-18T09:21:06;23.37;;;10.40;;
65315;SDS011;51920;53.952;10.292;2022-12-18T09:23:32;19.83;;;10.13;;
65315;SDS011;51920;53.952;10.292;2022-12-18T09:25:58;21.90;;;9.83;;
65315;SDS011;51920;53.952;10.292;2022-12-18T09:28:24;21.90;;;9.85;;
65315;SDS011;51920;53.952;10.292;2022-12-18T09:30:50;20.20;;;10.00;;
65315;SDS011;51920;53.952;10.292;2022-12-18T09:33:16;23.17;;;10.52;;
65315;SDS011;51920;53.952;10.292;2022-12-18T09:35:42;21.17;;;10.52;;
65315;SDS011;51920;53.952;10.292;2022-12-18T09:38:13;18.70;;;9.47;;
65315;SDS011;51920;53.952;10.292;2022-12-18T09:40:48;21.45;;;10.48;;
65315;SDS011;51920;53.952;10.292;2022-12-18T09:43:30;20.75;;;10.73;;
65315;SDS011;51920;53.952;10.292;2022-12-18T09:46:09;20.98;;;10.35;;
65315;SDS011;51920;53.952;10.292;2022-12-18T09:48:41;19.35;;;10.50;;
65315;SDS011;51920;53.952;10.292;2022-12-18T09:51:16;22.40;;;9.93;;
65315;SDS011;51920;53.952;10.292;2022-12-18T09:53:50;20.90;;;9.50;;
65315;SDS011;51920;53.952;10.292;2022-12-18T09:56:22;21.80;;;10.43;;
65315;SDS011;51920;53.952;10.292;2022-12-18T09:58:57;20.05;;;9.50;;
65315;SDS011;51920;53.952;10.292;2022-12-18T10:01:24;20.92;;;9.40;;
65315;SDS011;51920;53.952;10.292;2022-12-18T10:03:52;17.20;;;8.57;;
65315;SDS011;51920;53.952;10.292;2022-12-18T10:06:29;19.83;;;9.65;;
65315;SDS011;51920;53.952;10.292;2022-12-18T10:11:53;18.05;;;9.00;;
65315;SDS011;51920;53.952;10.292;2022-12-18T10:19:41;21.52;;;9.70;;
65315;SDS011;51920;53.952;10.292;2022-12-18T10:25:03;20.73;;;9.82;;
65315;SDS011;51920;53.952;10.292;2022-12-18T10:27:39;21.80;;;9.65;;
65315;SDS011;51920;53.952;10.292;2022-12-18T10:30:12;23.83;;;9.77;;
65315;SDS011;51920;53.952;10.292;2022-12-18T10:32:39;21.33;;;9.70;;
65315;SDS011;51920;53.952;10.292;2022-12-18T10:35:07;23.87;;;10.63;;
65315;SDS011;51920;53.952;10.292;2022-12-18T10:37:58;20.20;;;9.38;;
65315;SDS011;51920;53.952;10.292;2022-12-18T10:40:29;21.20;;;10.30;;
65315;SDS011;51920;53.952;10.292;2022-12-18T10:45:57;20.63;;;9.63;;
65315;SDS011;51920;53.952;10.292;2022-12-18T10:48:27;19.53;;;9.33;;
65315;SDS011;51920;53.952;10.292;2022-12-18T10:50:53;19.83;;;9.20;;
65315;SDS011;51920;53.952;10.292;2022-12-18T10:53:21;18.90;;;9.23;;
65315;SDS011;51920;53.952;10.292;2022-12-18T10:55:49;19.52;;;9.07;;
65315;SDS011;51920;53.952;10.292;2022-12-18T11:01:07;19.97;;;9.37;;
65315;SDS011;51920;53.952;10.292;2022-12-18T11:03:39;19.00;;;8.88;;
65315;SDS011;51920;53.952;10.292;2022-12-18T11:06:24;18.83;;;8.90;;
65315;SDS011;51920;53.952;10.292;2022-12-18T11:09:06;19.83;;;8.68;;
65315;SDS011;51920;53.952;10.292;2022-12-18T11:11:48;20.55;;;10.13;;
65315;SDS011;51920;53.952;10.292;2022-12-18T11:14:28;19.77;;;8.97;;
65315;SDS011;51920;53.952;10.292;2022-12-18T11:16:55;21.42;;;9.20;;
65315;SDS011;51920;53.952;10.292;2022-12-18T11:19:36;22.45;;;9.13;;
65315;SDS011;51920;53.952;10.292;2022-12-18T11:22:18;19.95;;;8.57;;
65315;SDS011;51920;53.952;10.292;2022-12-18T11:24:59;20.77;;;9.10;;
65315;SDS011;51920;53.952;10.292;2022-12-18T11:27:27;21.53;;;9.47;;
65315;SDS011;51920;53.952;10.292;2022-12-18T11:30:06;19.80;;;8.23;;
65315;SDS011;51920;53.952;10.292;2022-12-18T11:32:35;21.00;;;9.38;;
65315;SDS011;51920;53.952;10.292;2022-12-18T11:35:25;20.95;;;9.30;;
65315;SDS011;51920;53.952;10.292;2022-12-18T11:38:12;20.17;;;8.93;;
65315;SDS011;51920;53.952;10.292;2022-12-18T11:40:44;18.77;;;8.33;;
65315;SDS011;51920;53.952;10.292;2022-12-18T11:43:25;22.83;;;9.80;;
65315;SDS011;51920;53.952;10.292;2022-12-18T11:45:56;20.27;;;9.68;;
65315;SDS011;51920;53.952;10.292;2022-12-18T11:48:28;24.27;;;9.88;;
65315;SDS011;51920;53.952;10.292;2022-12-18T11:50:55;22.80;;;10.25;;
65315;SDS011;51920;53.952;10.292;2022-12-18T11:53:23;19.17;;;9.70;;
65315;SDS011;51920;53.952;10.292;2022-12-18T12:01:16;23.10;;;9.63;;
65315;SDS011;51920;53.952;10.292;2022-12-18T12:04:10;21.83;;;9.63;;
65315;SDS011;51920;53.952;10.292;2022-12-18T12:06:50;23.47;;;10.87;;
65315;SDS011;51920;53.952;10.292;2022-12-18T12:17:42;25.33;;;12.05;;
65315;SDS011;51920;53.952;10.292;2022-12-18T12:25:27;28.15;;;12.38;;
65315;SDS011;51920;53.952;10.292;2022-12-18T12:31:01;30.35;;;12.85;;
65315;SDS011;51920;53.952;10.292;2022-12-18T12:36:49;27.90;;;12.07;;
65315;SDS011;51920;53.952;10.292;2022-12-18T12:39:17;25.15;;;11.18;;
65315;SDS011;51920;53.952;10.292;2022-12-18T12:41:46;27.83;;;12.68;;
65315;SDS011;51920;53.952;10.292;2022-12-18T12:44:33;31.15;;;12.27;;
65315;SDS011;51920;53.952;10.292;2022-12-18T12:47:09;32.73;;;11.97;;
65315;SDS011;51920;53.952;10.292;2022-12-18T12:49:40;39.70;;;14.80;;
65315;SDS011;51920;53.952;10.292;2022-12-18T12:52:12;27.92;;;11.93;;
65315;SDS011;51920;53.952;10.292;2022-12-18T12:54:41;27.70;;;11.03;;
65315;SDS011;51920;53.952;10.292;2022-12-18T12:57:25;28.63;;;11.65;;
65315;SDS011;51920;53.952;10.292;2022-12-18T13:00:07;23.88;;;10.55;;
65315;SDS011;51920;53.952;10.292;2022-12-18T13:05:56;22.67;;;10.63;;
65315;SDS011;51920;53.952;10.292;2022-12-18T13:08:31;30.87;;;10.87;;
65315;SDS011;51920;53.952;10.292;2022-12-18T13:11:28;24.92;;;10.02;;
65315;SDS011;51920;53.952;10.292;2022-12-18T13:14:38;28.50;;;11.15;;
65315;SDS011;51920;53.952;10.292;2022-12-18T13:17:15;26.05;;;10.18;;
65315;SDS011;51920;53.952;10.292;2022-12-18T13:19:50;24.80;;;10.68;;
65315;SDS011;51920;53.952;10.292;2022-12-18T13:22:21;23.97;;;9.27;;
65315;SDS011;51920;53.952;10.292;2022-12-18T13:43:43;25.85;;;10.18;;
65315;SDS011;51920;53.952;10.292;2022-12-18T13:49:03;31.02;;;11.93;;
65315;SDS011;51920;53.952;10.292;2022-12-18T13:51:39;25.70;;;9.82;;
65315;SDS011;51920;53.952;10.292;2022-12-18T13:56:54;25.83;;;10.70;;
65315;SDS011;51920;53.952;10.292;2022-12-18T13:59:21;29.53;;;11.37;;
65315;SDS011;51920;53.952;10.292;2022-12-18T14:01:50;32.67;;;12.27;;
65315;SDS011;51920;53.952;10.292;2022-12-18T14:04:28;27.88;;;10.77;;
65315;SDS011;51920;53.952;10.292;2022-12-18T14:07:01;25.83;;;10.63;;
65315;SDS011;51920;53.952;10.292;2022-12-18T14:09:29;24.98;;;10.88;;
65315;SDS011;51920;53.952;10.292;2022-12-18T14:11:58;30.50;;;11.18;;
65315;SDS011;51920;53.952;10.292;2022-12-18T14:14:44;26.70;;;10.07;;
65315;SDS011;51920;53.952;10.292;2022-12-18T14:17:12;30.25;;;10.63;;
65315;SDS011;51920;53.952;10.292;2022-12-18T14:19:45;30.33;;;11.38;;
65315;SDS011;51920;53.952;10.292;2022-12-18T14:22:17;34.47;;;12.25;;
65315;SDS011;51920;53.952;10.292;2022-12-18T14:24:46;40.92;;;14.45;;
65315;SDS011;51920;53.952;10.292;2022-12-18T14:27:23;29.97;;;12.23;;
65315;SDS011;51920;53.952;10.292;2022-12-18T14:29:50;61.28;;;18.83;;
65315;SDS011;51920;53.952;10.292;2022-12-18T14:32:19;38.03;;;13.03;;
65315;SDS011;51920;53.952;10.292;2022-12-18T14:34:51;49.72;;;15.32;;
65315;SDS011;51920;53.952;10.292;2022-12-18T14:37:23;32.45;;;12.90;;
65315;SDS011;51920;53.952;10.292;2022-12-18T14:39:53;31.98;;;11.57;;
65315;SDS011;51920;53.952;10.292;2022-12-18T14:42:23;31.80;;;12.00;;
65315;SDS011;51920;53.952;10.292;2022-12-18T14:47:55;30.98;;;11.18;;
65315;SDS011;51920;53.952;10.292;2022-12-18T14:50:21;32.17;;;11.83;;
65315;SDS011;51920;53.952;10.292;2022-12-18T14:52:46;34.78;;;12.13;;
65315;SDS011;51920;53.952;10.292;2022-12-18T14:55:18;25.40;;;9.50;;
65315;SDS011;51920;53.952;10.292;2022-12-18T14:57:46;27.02;;;11.35;;
65315;SDS011;51920;53.952;10.292;2022-12-18T15:00:17;29.90;;;11.73;;
65315;SDS011;51920;53.952;10.292;2022-12-18T15:02:45;32.75;;;11.02;;
65315;SDS011;51920;53.952;10.292;2022-12-18T15:05:18;34.65;;;13.07;;
65315;SDS011;51920;53.952;10.292;2022-12-18T15:18:01;30.50;;;11.13;;
65315;SDS011;51920;53.952;10.292;2022-12-18T15:20:33;29.33;;;10.73;;
65315;SDS011;51920;53.952;10.292;2022-12-18T15:23:14;28.70;;;10.15;;
65315;SDS011;51920;53.952;10.292;2022-12-18T15:25:41;28.33;;;10.40;;
65315;SDS011;51920;53.952;10.292;2022-12-18T15:28:15;28.88;;;10.48;;
65315;SDS011;51920;53.952;10.292;2022-12-18T15:33:26;29.70;;;10.73;;
65315;SDS011;51920;53.952;10.292;2022-12-18T15:36:02;28.90;;;10.45;;
65315;SDS011;51920;53.952;10.292;2022-12-18T15:38:38;34.03;;;11.75;;
65315;SDS011;51920;53.952;10.292;2022-12-18T15:41:03;32.20;;;11.73;;
65315;SDS011;51920;53.952;10.292;2022-12-18T15:43:29;32.95;;;11.52;;
65315;SDS011;51920;53.952;10.292;2022-12-18T15:48:32;26.75;;;9.77;;
65315;SDS011;51920;53.952;10.292;2022-12-18T15:51:00;33.97;;;11.18;;
65315;SDS011;51920;53.952;10.292;2022-12-18T15:53:30;31.02;;;10.98;;
65315;SDS011;51920;53.952;10.292;2022-12-18T15:55:58;31.45;;;11.02;;
65315;SDS011;51920;53.952;10.292;2022-12-18T15:58:42;80.20;;;25.93;;
65315;SDS011;51920;53.952;10.292;2022-12-18T16:01:09;41.78;;;14.15;;
65315;SDS011;51920;53.952;10.292;2022-12-18T16:03:35;35.30;;;10.93;;
65315;SDS011;51920;53.952;10.292;2022-12-18T16:06:01;35.40;;;11.57;;
65315;SDS011;51920;53.952;10.292;2022-12-18T16:08:27;34.37;;;12.30;;
65315;SDS011;51920;53.952;10.292;2022-12-18T16:10:54;38.90;;;13.13;;
65315;SDS011;51920;53.952;10.292;2022-12-18T16:13:20;38.47;;;13.10;;
65315;SDS011;51920;53.952;10.292;2022-12-18T16:15:45;33.97;;;12.83;;
65315;SDS011;51920;53.952;10.292;2022-12-18T16:18:10;33.97;;;12.83;;
65315;SDS011;51920;53.952;10.292;2022-12-18T16:20:39;39.30;;;13.10;;
65315;SDS011;51920;53.952;10.292;2022-12-18T16:23:04;35.80;;;12.53;;
65315;SDS011;51920;53.952;10.292;2022-12-18T16:25:30;32.10;;;11.93;;
65315;SDS011;51920;53.952;10.292;2022-12-18T16:27:55;33.08;;;12.48;;
65315;SDS011;51920;53.952;10.292;2022-12-18T16:30:29;32.47;;;11.75;;
65315;SDS011;51920;53.952;10.292;2022-12-18T16:32:56;32.33;;;11.63;;
65315;SDS011;51920;53.952;10.292;2022-12-18T16:35:24;29.88;;;11.60;;